KUOX/UOX METAR and TAF weather

Enter ICAO airport designator
Station Type Date Time Source
KUOX METAR 2019/12/12 09:15 UTC NOAA

KUOX 120915Z AUTO 00000KT 10SM CLR M03/M04 A3047 RMK AO2


Station Type Date Time Source
KUOX Decoded METAR 2019/12/12 09:15 UTC NOAA

Oxford, University-Oxford Airport, MS, United States (KUOX) 34-23-04N 089-32-08W
Dec 12, 2019 - 04:15 AM EST / 2019.12.12 0915 UTC
Wind: Calm:0
Visibility: 10 mile(s):0
Sky conditions: clear
Temperature: 26 F (-3 C)
Dew Point: 24 F (-4 C)
Relative Humidity: 92%
Pressure (altimeter): 30.47 in. Hg (1031 hPa)
ob: KUOX 120915Z AUTO 00000KT 10SM CLR M03/M04 A3047 RMK AO2
cycle: 9

Station Type Date Time Source
KUOX TAF UTC NOAA

Error!

Example: see airport list